Search for airport 
image banner adimage banner adimage banner ad
image banner ad

SCMK - Melinka

Located in Melinka, Chile

ICAO - SCMK, IATA -

Data provided by Airmate  

General information

Coordinates: S43°53'42" W73°44'20"
Elevation is 35 feet MSL.
Magnetic variation is 10° East
View others Airports in Aisén del General Carlos Ibañez

Operational data

Special qualification required
Current time UTC:
Current local time:
Weather
METAR: SCMK 060000Z AUTO 25006KT //// // NCD 08/07 Q1025
View NOTAMs / SUP AIP / TFR affecting this airport [VIEW]
Communications frequencies: [VIEW]

Runways:

RWY identifierQFULength (ft)Width (ft)SurfaceLDA (ft)
18192°262559ASPH
3612°262559ASPH

Airport contact information

Address: Melinka Chile

Satellite view of SCMK